Helena Regional Airport
KHLN : now visible

Airfield :











YOU CAN JOIN US ON...

 
LOGIN :

Register | Disclaimer

   EN    FR    IT 

 









Legend :    VFR   Marginal VFR   IFR   Intensive IFR   Very Intensive IFR
Visi :
Ceiling :
>= 8 km
>= 3000ft
5 to 8 km
1000 to 3000 ft
1500m to 5 km
500 to 1000 ft
800 to 1500m
200 to 500 ft
< 800m
< 200 ft
Symbols :   Thunderstorms  Fog  Heavy snow  Heavy precipitations  Wind > 20 kt






- Airport Elevation : 3877 ft
- IATA code : HLN


KHLN - Helena Regional

CURRENT METAR :
  • 250653Z AUTO 26008KT 10SM CLR 19/M03 A2999 RMK AO2 SLP133 T01941033 403220161

EXPIRED METARs :
  • 250553Z AUTO 29005KT 10SM CLR 17/00 A2997 RMK AO2 SLP132 T01720000 10311 20172 51022
  • 250453Z AUTO 28009KT 10SM CLR 21/M01 A2995 RMK AO2 SLP121 T02111006
  • 250353Z AUTO 30011KT 10SM CLR 23/M01 A2994 RMK AO2 SLP116 T02281006
  • 250253Z 32009KT 10SM CLR 27/01 A2990 RMK AO2 SLP101 T02670006 52017

TAF KHLN
Valid from the 25 at 06:00 until the 26 at 06:00 UTC


250537Z 2506/2606 27006KT P6SM SKC
FM251800 34011KT P6SM FEW090
FM260200 VRB06KT P6SM SKC
KZLC FIR / North America



MET'MAP, your aeronautical weather chart ! - Copyright ORBIFLY December 2007 - Disclaimer

ORBIFLY MET'MAP TEAM :

Programming & Development : Alexandra Zaïnal
Original concept : Baudouin d'Aumeries
Technical & hardware support : Manuel Goepfert
Assistance : Marc-Olivier Méhu




SOURCES & CREDITS :

   NOAA       Earth
Advisory